createdAt,value
2023-03-13T00:01:37.933Z,9.50
2023-03-13T00:04:06.609Z,9.60
2023-03-13T00:06:38.475Z,9.50
2023-03-13T00:09:08.739Z,9.60
2023-03-13T00:11:36.861Z,9.60
2023-03-13T00:14:08.837Z,9.60
2023-03-13T00:16:40.901Z,9.70
2023-03-13T00:19:09.693Z,9.70
2023-03-13T00:21:41.283Z,9.60
2023-03-13T00:24:11.884Z,9.60
2023-03-13T00:26:39.996Z,9.60
2023-03-13T00:29:08.207Z,9.50
2023-03-13T00:31:40.170Z,9.50
2023-03-13T00:34:08.329Z,9.50
2023-03-13T00:36:38.908Z,9.50
2023-03-13T00:39:07.784Z,9.50
2023-03-13T00:41:38.390Z,9.50
2023-03-13T00:44:07.144Z,9.50
2023-03-13T00:46:35.353Z,9.50
2023-03-13T00:49:05.458Z,9.50
2023-03-13T00:51:35.666Z,9.50
2023-03-13T00:54:06.918Z,9.50
2023-03-13T00:56:35.138Z,9.50
2023-03-13T00:59:03.290Z,9.50
2023-03-13T01:01:33.670Z,9.50
2023-03-13T01:04:05.955Z,9.40
2023-03-13T01:06:40.499Z,9.40
2023-03-13T01:09:09.934Z,9.40
2023-03-13T01:11:40.238Z,9.40
2023-03-13T01:14:13.130Z,9.30
2023-03-13T01:16:43.841Z,9.30
2023-03-13T01:19:15.434Z,9.30
2023-03-13T01:21:47.529Z,9.20
2023-03-13T01:24:16.912Z,9.20
2023-03-13T01:26:45.066Z,9.20
2023-03-13T01:29:13.141Z,9.10
2023-03-13T01:31:41.286Z,9.10
2023-03-13T01:34:11.191Z,9.10
2023-03-13T01:36:40.709Z,9.10
2023-03-13T01:39:08.958Z,9.10
2023-03-13T01:41:39.305Z,9.10
2023-03-13T01:44:07.898Z,9.10
2023-03-13T01:46:39.272Z,9.10
2023-03-13T01:49:09.921Z,9.10
2023-03-13T01:51:51.458Z,9.00
2023-03-13T01:54:22.843Z,9.00
2023-03-13T01:56:56.187Z,9.00
2023-03-13T01:59:29.011Z,9.00
2023-03-13T02:02:00.339Z,8.90
2023-03-13T02:04:31.610Z,9.00
2023-03-13T02:07:06.152Z,8.90
2023-03-13T02:09:36.754Z,8.90
2023-03-13T02:12:10.738Z,8.90
2023-03-13T02:14:42.391Z,8.90
2023-03-13T02:17:13.899Z,8.90
2023-03-13T02:19:47.356Z,9.00
2023-03-13T02:22:26.198Z,9.00
2023-03-13T02:25:01.574Z,9.00
2023-03-13T02:27:31.029Z,9.00
2023-03-13T02:30:00.335Z,9.00
2023-03-13T02:32:30.956Z,9.00
2023-03-13T02:35:04.715Z,8.90
2023-03-13T02:37:35.462Z,8.90
2023-03-13T02:40:09.577Z,8.90
2023-03-13T02:42:44.576Z,8.90
2023-03-13T02:45:15.555Z,8.90
2023-03-13T02:47:44.972Z,8.90
2023-03-13T02:50:14.556Z,8.90
2023-03-13T02:52:46.442Z,8.90
2023-03-13T02:55:22.516Z,8.90
2023-03-13T02:57:52.470Z,8.90
2023-03-13T03:00:21.961Z,8.90
2023-03-13T03:02:50.025Z,8.90
2023-03-13T03:05:22.228Z,8.90
2023-03-13T03:07:50.617Z,8.90
2023-03-13T03:10:21.033Z,8.90
2023-03-13T03:12:53.538Z,8.90
2023-03-13T03:15:23.843Z,8.90
2023-03-13T03:17:53.461Z,8.90
2023-03-13T03:20:21.593Z,8.90
2023-03-13T03:22:49.696Z,8.90
2023-03-13T03:25:17.888Z,8.90
2023-03-13T03:27:49.797Z,8.90
2023-03-13T03:30:21.812Z,8.90
2023-03-13T03:32:49.992Z,8.90
2023-03-13T03:35:18.297Z,8.90
2023-03-13T03:37:46.377Z,9.00
2023-03-13T03:40:17.182Z,9.00
2023-03-13T03:42:47.719Z,9.00
2023-03-13T03:45:15.990Z,9.00
2023-03-13T03:47:45.453Z,9.00
2023-03-13T03:50:13.651Z,9.00
2023-03-13T03:52:52.070Z,9.00
2023-03-13T03:55:22.865Z,9.10
2023-03-13T03:57:51.085Z,9.10
2023-03-13T04:00:30.110Z,9.10
2023-03-13T04:03:01.169Z,9.10
2023-03-13T04:05:29.382Z,9.10
2023-03-13T04:07:57.590Z,9.10
2023-03-13T04:10:27.972Z,9.20
2023-03-13T04:12:58.117Z,9.20
2023-03-13T04:15:26.459Z,9.30
2023-03-13T04:17:57.104Z,9.30
2023-03-13T04:20:26.881Z,9.40
2023-03-13T04:22:55.013Z,9.40
2023-03-13T04:25:25.539Z,9.50
2023-03-13T04:27:57.182Z,9.50
2023-03-13T04:30:29.137Z,9.60
2023-03-13T04:33:17.559Z,9.70
2023-03-13T04:36:06.210Z,9.70
2023-03-13T04:38:52.243Z,9.70
2023-03-13T04:41:38.639Z,9.70
2023-03-13T04:44:32.597Z,9.80
2023-03-13T04:47:29.973Z,9.80
2023-03-13T04:50:17.318Z,9.80
2023-03-13T04:52:52.280Z,9.90
2023-03-13T04:55:33.904Z,9.80
2023-03-13T04:58:24.995Z,9.90
2023-03-13T05:01:22.767Z,9.90
2023-03-13T05:03:59.887Z,9.90
2023-03-13T05:07:06.469Z,10.00
2023-03-13T05:09:38.523Z,10.00
2023-03-13T05:12:25.227Z,10.00
2023-03-13T05:14:58.066Z,10.10
2023-03-13T05:18:01.281Z,10.10
2023-03-13T05:21:08.584Z,10.20
2023-03-13T05:23:53.243Z,10.20
2023-03-13T05:26:36.297Z,10.30
2023-03-13T05:29:15.219Z,10.30
2023-03-13T05:32:02.017Z,10.30
2023-03-13T05:34:48.751Z,10.40
2023-03-13T05:37:35.017Z,10.40
2023-03-13T05:40:03.348Z,10.40
2023-03-13T05:42:59.634Z,10.50
2023-03-13T05:45:41.819Z,10.60
2023-03-13T05:48:24.016Z,10.60
2023-03-13T05:51:04.311Z,10.70
2023-03-13T05:53:50.925Z,10.70
2023-03-13T05:56:52.159Z,10.80
2023-03-13T05:59:36.839Z,10.80
2023-03-13T06:02:23.987Z,10.80
2023-03-13T06:04:52.605Z,10.90
2023-03-13T06:07:20.814Z,10.90
2023-03-13T06:09:49.554Z,11.00
2023-03-13T06:12:19.744Z,11.00
2023-03-13T06:14:51.786Z,11.00
2023-03-13T06:17:45.823Z,11.00
2023-03-13T06:20:16.197Z,11.10
2023-03-13T06:22:44.349Z,11.20
2023-03-13T06:25:12.591Z,11.10
2023-03-13T06:27:42.334Z,11.20
2023-03-13T06:30:13.694Z,11.20
2023-03-13T06:32:42.018Z,11.20
2023-03-13T06:35:10.635Z,11.20
2023-03-13T06:37:40.792Z,11.30
2023-03-13T06:40:10.171Z,11.30
2023-03-13T06:42:40.358Z,11.40
2023-03-13T06:45:09.861Z,11.40
2023-03-13T06:47:39.368Z,11.50
2023-03-13T06:50:08.406Z,11.50
2023-03-13T06:52:44.018Z,11.50
2023-03-13T06:55:13.163Z,11.50
2023-03-13T06:57:41.523Z,11.60
2023-03-13T07:00:12.390Z,11.60
2023-03-13T07:02:44.137Z,11.70
2023-03-13T07:05:14.864Z,11.60
2023-03-13T07:07:45.494Z,11.70
2023-03-13T07:10:14.283Z,11.70
2023-03-13T07:12:42.465Z,11.70
2023-03-13T07:15:11.349Z,11.80
2023-03-13T07:17:39.483Z,11.80
2023-03-13T07:20:11.911Z,11.80
2023-03-13T07:22:40.349Z,11.80
2023-03-13T07:25:09.618Z,11.90
2023-03-13T07:27:38.521Z,11.90
2023-03-13T07:30:07.994Z,11.90
2023-03-13T07:32:38.494Z,11.90
2023-03-13T07:35:10.586Z,11.90
2023-03-13T07:37:41.081Z,11.90
2023-03-13T07:40:12.813Z,12.00
2023-03-13T07:42:42.270Z,12.00
2023-03-13T07:45:12.070Z,12.00
2023-03-13T07:47:40.366Z,12.10
2023-03-13T07:50:12.523Z,12.10
2023-03-13T07:52:40.786Z,12.10
2023-03-13T07:55:10.071Z,12.10
2023-03-13T07:57:38.268Z,12.10
2023-03-13T08:00:10.986Z,12.20
2023-03-13T08:02:40.185Z,12.20
2023-03-13T08:05:09.091Z,12.20
2023-03-13T08:07:38.533Z,12.30
2023-03-13T08:10:07.439Z,12.30
2023-03-13T08:12:35.579Z,12.30
2023-03-13T08:15:07.229Z,12.30
2023-03-13T08:17:35.514Z,12.30
2023-03-13T08:20:04.100Z,12.30
2023-03-13T08:22:34.525Z,12.40
2023-03-13T08:25:04.044Z,12.40
2023-03-13T08:27:34.218Z,12.40
2023-03-13T08:30:05.064Z,12.40
2023-03-13T08:32:34.718Z,12.50
2023-03-13T08:35:02.960Z,12.50
2023-03-13T08:37:33.445Z,12.50
2023-03-13T08:40:11.331Z,12.50
2023-03-13T08:42:40.521Z,12.50
2023-03-13T08:45:09.756Z,12.50
2023-03-13T08:47:39.929Z,12.50
2023-03-13T08:50:09.002Z,12.50
2023-03-13T08:52:39.690Z,12.50
2023-03-13T08:55:10.350Z,12.50
2023-03-13T08:57:38.533Z,12.50
2023-03-13T09:00:11.149Z,12.60
2023-03-13T09:02:39.316Z,12.60
2023-03-13T09:05:09.147Z,12.60
2023-03-13T09:07:40.046Z,12.60
2023-03-13T09:10:10.800Z,12.60
2023-03-13T09:12:38.872Z,12.70
2023-03-13T09:15:08.337Z,12.70
2023-03-13T09:17:36.469Z,12.80
2023-03-13T09:20:05.592Z,12.90
2023-03-13T09:22:33.685Z,12.90
2023-03-13T09:25:04.396Z,12.90
2023-03-13T09:27:36.235Z,13.00
2023-03-13T09:30:07.809Z,13.10
2023-03-13T09:32:36.261Z,13.20
2023-03-13T09:35:07.462Z,13.20
2023-03-13T09:37:35.732Z,13.30
2023-03-13T09:40:08.498Z,13.30
2023-03-13T09:42:47.344Z,13.30
2023-03-13T09:45:34.026Z,13.40
2023-03-13T09:48:06.636Z,13.50
2023-03-13T09:50:43.313Z,13.60
2023-03-13T09:53:16.552Z,13.60
2023-03-13T09:55:46.664Z,13.70
2023-03-13T09:58:22.335Z,13.70
2023-03-13T10:00:55.664Z,13.70
2023-03-13T10:03:27.854Z,13.80
2023-03-13T10:06:02.189Z,13.80
2023-03-13T10:08:32.751Z,13.90
2023-03-13T10:11:07.917Z,13.90
2023-03-13T10:13:47.245Z,14.00
2023-03-13T10:16:20.047Z,14.10
2023-03-13T10:18:53.732Z,14.00
2023-03-13T10:21:25.903Z,14.00
2023-03-13T10:24:02.053Z,13.90
2023-03-13T10:26:31.516Z,13.90
2023-03-13T10:29:22.027Z,14.00
2023-03-13T10:31:57.948Z,14.00
2023-03-13T10:34:27.131Z,14.00
2023-03-13T10:37:00.634Z,14.10
2023-03-13T10:39:30.730Z,14.10
2023-03-13T10:42:00.904Z,14.20
2023-03-13T10:44:34.405Z,14.30
2023-03-13T10:47:04.887Z,14.50
2023-03-13T10:49:34.764Z,14.60
2023-03-13T10:52:04.650Z,14.80
2023-03-13T10:54:35.240Z,14.90
2023-03-13T10:57:20.925Z,14.90
2023-03-13T10:59:52.051Z,15.00
2023-03-13T11:02:24.981Z,15.00
2023-03-13T11:04:54.492Z,15.00
2023-03-13T11:07:29.627Z,14.90
2023-03-13T11:10:01.859Z,14.80
2023-03-13T11:12:35.605Z,14.80
2023-03-13T11:15:14.187Z,14.70
2023-03-13T11:17:45.638Z,14.70
2023-03-13T11:20:28.602Z,14.80
2023-03-13T11:23:12.177Z,14.90
2023-03-13T11:25:51.095Z,15.10
2023-03-13T11:28:30.906Z,15.10
2023-03-13T11:31:09.719Z,15.20
2023-03-13T11:33:53.325Z,15.30
2023-03-13T11:36:28.739Z,15.30
2023-03-13T11:39:09.189Z,15.40
2023-03-13T11:41:53.676Z,15.50
2023-03-13T11:44:30.936Z,15.60
2023-03-13T11:47:26.529Z,15.60
2023-03-13T11:50:16.772Z,15.80
2023-03-13T11:52:56.478Z,16.00
2023-03-13T11:55:32.802Z,16.00
2023-03-13T11:58:18.549Z,16.10
2023-03-13T12:00:51.895Z,16.20
2023-03-13T12:03:27.336Z,16.30
2023-03-13T12:05:58.171Z,16.30
2023-03-13T12:08:31.745Z,16.30
2023-03-13T12:11:11.438Z,16.30
2023-03-13T12:13:42.436Z,16.30
2023-03-13T12:16:16.757Z,16.30
2023-03-13T12:18:47.490Z,16.30
2023-03-13T12:21:21.781Z,16.20
2023-03-13T12:23:59.714Z,16.20
2023-03-13T12:26:36.430Z,16.20
2023-03-13T12:29:16.213Z,16.10
2023-03-13T12:31:51.688Z,16.20
2023-03-13T12:34:28.898Z,16.20
2023-03-13T12:37:06.824Z,16.20
2023-03-13T12:39:41.875Z,16.30
2023-03-13T12:42:21.713Z,16.50
2023-03-13T12:44:52.418Z,16.70
2023-03-13T12:47:29.369Z,16.80
2023-03-13T12:50:34.576Z,16.90
2023-03-13T12:53:34.367Z,16.90
2023-03-13T12:56:38.135Z,16.90
2023-03-13T12:59:12.208Z,16.90
2023-03-13T13:01:43.886Z,17.00
2023-03-13T13:04:15.403Z,16.90
2023-03-13T13:06:56.756Z,16.90
2023-03-13T13:09:28.588Z,17.10
2023-03-13T13:12:01.882Z,17.20
2023-03-13T13:15:15.245Z,17.20
2023-03-13T13:18:13.686Z,17.10
2023-03-13T13:20:47.254Z,17.10
2023-03-13T13:23:39.047Z,17.00
2023-03-13T13:26:49.435Z,17.10
2023-03-13T13:29:57.042Z,17.30
2023-03-13T13:32:38.097Z,17.30
2023-03-13T13:35:19.636Z,17.30
2023-03-13T13:37:50.232Z,17.30
2023-03-13T13:40:34.624Z,17.30
2023-03-13T13:43:03.901Z,17.20
2023-03-13T13:45:33.953Z,17.20
2023-03-13T13:48:33.779Z,17.20
2023-03-13T13:51:25.751Z,17.20
2023-03-13T13:53:59.849Z,17.30
2023-03-13T13:56:38.362Z,17.30
2023-03-13T13:59:43.770Z,17.40
2023-03-13T14:02:24.188Z,17.40
2023-03-13T14:05:04.090Z,17.40
2023-03-13T14:07:52.089Z,17.30
2023-03-13T14:10:37.777Z,17.40
2023-03-13T14:13:17.919Z,17.50
2023-03-13T14:15:47.858Z,17.50
2023-03-13T14:18:23.552Z,17.50
2023-03-13T14:21:14.139Z,17.50
2023-03-13T14:23:44.145Z,17.40
2023-03-13T14:26:18.760Z,17.40
2023-03-13T14:28:51.472Z,17.30
2023-03-13T14:31:28.285Z,17.10
2023-03-13T14:33:57.939Z,17.10
2023-03-13T14:36:28.958Z,17.10
2023-03-13T14:38:58.671Z,17.00
2023-03-13T14:41:32.153Z,16.90
2023-03-13T14:44:06.749Z,16.90
2023-03-13T14:46:41.724Z,16.80
2023-03-13T14:49:17.619Z,16.80
2023-03-13T14:51:45.923Z,16.80
2023-03-13T14:54:28.293Z,16.80
2023-03-13T14:57:16.479Z,16.70
2023-03-13T14:59:48.608Z,16.70
2023-03-13T15:02:22.320Z,16.70
2023-03-13T15:04:56.086Z,16.60
2023-03-13T15:07:29.394Z,16.60
2023-03-13T15:09:57.683Z,16.60
2023-03-13T15:12:28.884Z,16.50
2023-03-13T15:14:59.635Z,16.50
2023-03-13T15:17:29.787Z,16.40
2023-03-13T15:19:59.260Z,16.40
2023-03-13T15:22:30.132Z,16.50
2023-03-13T15:25:06.603Z,16.60
2023-03-13T15:27:35.810Z,16.60
2023-03-13T15:30:06.457Z,16.60
2023-03-13T15:32:39.215Z,16.60
2023-03-13T15:35:27.918Z,16.50
2023-03-13T15:37:56.547Z,16.50
2023-03-13T15:40:25.564Z,16.40
2023-03-13T15:42:56.901Z,16.40
2023-03-13T15:45:29.139Z,16.40
2023-03-13T15:48:00.461Z,16.40
2023-03-13T15:50:31.550Z,16.50
2023-03-13T15:53:01.983Z,16.40
2023-03-13T15:55:32.523Z,16.40
2023-03-13T15:58:00.651Z,16.40
2023-03-13T16:00:30.270Z,16.30
2023-03-13T16:03:01.429Z,16.30
2023-03-13T16:05:32.118Z,16.30
2023-03-13T16:08:00.314Z,16.20
2023-03-13T16:10:30.080Z,16.20
2023-03-13T16:12:58.372Z,16.20
2023-03-13T16:15:26.620Z,16.10
2023-03-13T16:17:58.818Z,16.10
2023-03-13T16:20:30.052Z,16.10
2023-03-13T16:23:03.604Z,16.00
2023-03-13T16:25:32.444Z,16.00
2023-03-13T16:28:00.815Z,16.00
2023-03-13T16:30:31.476Z,16.00
2023-03-13T16:33:01.761Z,15.90
2023-03-13T16:35:30.647Z,15.90
2023-03-13T16:37:59.406Z,15.80
2023-03-13T16:40:30.384Z,15.80
2023-03-13T16:43:01.480Z,15.80
2023-03-13T16:45:29.725Z,15.70
2023-03-13T16:47:58.042Z,15.70
2023-03-13T16:50:32.961Z,15.70
2023-03-13T16:53:01.690Z,15.60
2023-03-13T16:55:36.168Z,15.60
2023-03-13T16:58:05.312Z,15.50
2023-03-13T17:00:36.749Z,15.50
2023-03-13T17:03:05.102Z,15.40
2023-03-13T17:05:34.640Z,15.30
2023-03-13T17:08:02.797Z,15.30
2023-03-13T17:10:34.908Z,15.30
2023-03-13T17:13:04.485Z,15.20
2023-03-13T17:15:35.329Z,15.10
2023-03-13T17:18:06.338Z,15.10
2023-03-13T17:20:35.965Z,15.10
2023-03-13T17:23:04.337Z,15.00
2023-03-13T17:25:33.175Z,14.90
2023-03-13T17:28:01.404Z,14.90
2023-03-13T17:30:31.959Z,14.80
2023-03-13T17:33:02.704Z,14.80
2023-03-13T17:35:30.929Z,14.70
2023-03-13T17:38:00.497Z,14.70
2023-03-13T17:40:32.354Z,14.60
2023-03-13T17:43:00.745Z,14.60
2023-03-13T17:45:30.436Z,14.60
2023-03-13T17:48:00.859Z,14.50
2023-03-13T17:50:29.297Z,14.40
2023-03-13T17:52:57.727Z,14.40
2023-03-13T17:55:27.342Z,14.40
2023-03-13T17:57:57.780Z,14.30
2023-03-13T18:00:29.083Z,14.30
2023-03-13T18:02:58.597Z,14.30
2023-03-13T18:05:27.383Z,14.20
2023-03-13T18:07:56.740Z,14.20
2023-03-13T18:10:28.441Z,14.10
2023-03-13T18:12:59.220Z,14.10
2023-03-13T18:15:29.960Z,14.10
2023-03-13T18:17:58.231Z,14.10
2023-03-13T18:20:29.538Z,14.10
2023-03-13T18:23:00.364Z,14.00
2023-03-13T18:25:32.386Z,14.00
2023-03-13T18:28:02.822Z,14.00
2023-03-13T18:30:31.075Z,14.00
2023-03-13T18:32:59.256Z,13.90
2023-03-13T18:35:29.756Z,13.90
2023-03-13T18:37:58.150Z,13.90
2023-03-13T18:40:29.169Z,13.80
2023-03-13T18:43:01.937Z,13.80
2023-03-13T18:45:30.168Z,13.80
2023-03-13T18:47:58.381Z,13.70
2023-03-13T18:50:28.796Z,13.70
2023-03-13T18:52:58.193Z,13.70
2023-03-13T18:55:27.912Z,13.70
2023-03-13T18:57:56.472Z,13.60
2023-03-13T19:00:28.431Z,13.60
2023-03-13T19:02:57.118Z,13.60
2023-03-13T19:05:27.462Z,13.60
2023-03-13T19:07:55.855Z,13.50
2023-03-13T19:10:25.731Z,13.40
2023-03-13T19:12:55.300Z,13.40
2023-03-13T19:15:26.941Z,13.40
2023-03-13T19:17:56.295Z,13.40
2023-03-13T19:20:25.598Z,13.30
2023-03-13T19:22:55.188Z,13.30
2023-03-13T19:25:24.822Z,13.30
2023-03-13T19:27:53.317Z,13.30
2023-03-13T19:30:23.992Z,13.30
2023-03-13T19:32:53.914Z,13.20
2023-03-13T19:35:22.536Z,13.20
2023-03-13T19:37:50.988Z,13.20
2023-03-13T19:40:21.702Z,13.20
2023-03-13T19:42:49.971Z,13.20
2023-03-13T19:45:21.885Z,13.20
2023-03-13T19:47:50.358Z,13.20
2023-03-13T19:50:27.514Z,13.20
2023-03-13T19:52:58.813Z,13.20
2023-03-13T19:55:27.421Z,13.20
2023-03-13T19:57:57.931Z,13.20
2023-03-13T20:00:28.877Z,13.20
2023-03-13T20:02:57.052Z,13.10
2023-03-13T20:05:28.943Z,13.10
2023-03-13T20:07:59.107Z,13.10
2023-03-13T20:10:29.522Z,13.00
2023-03-13T20:12:58.271Z,13.00
2023-03-13T20:15:26.575Z,13.00
2023-03-13T20:17:54.840Z,13.00
2023-03-13T20:20:23.384Z,13.00
2023-03-13T20:22:54.198Z,13.00
2023-03-13T20:25:25.313Z,13.00
2023-03-13T20:27:56.073Z,13.00
2023-03-13T20:30:24.372Z,12.90
2023-03-13T20:32:59.266Z,12.90
2023-03-13T20:35:29.308Z,12.90
2023-03-13T20:38:00.844Z,12.80
2023-03-13T20:40:29.103Z,12.80
2023-03-13T20:42:59.078Z,12.70
2023-03-13T20:45:28.164Z,12.70
2023-03-13T20:47:56.548Z,12.70
2023-03-13T20:50:24.865Z,12.70
2023-03-13T20:52:56.235Z,12.60
2023-03-13T20:55:25.823Z,12.60
2023-03-13T20:57:53.997Z,12.50
2023-03-13T21:00:23.422Z,12.50
2023-03-13T21:02:51.832Z,12.50
2023-03-13T21:05:20.391Z,12.40
2023-03-13T21:07:51.370Z,12.40
2023-03-13T21:10:19.861Z,12.40
2023-03-13T21:12:49.677Z,12.30
2023-03-13T21:15:17.992Z,12.30
2023-03-13T21:17:46.204Z,12.30
2023-03-13T21:20:15.427Z,12.30
2023-03-13T21:22:44.495Z,12.20
2023-03-13T21:25:15.297Z,12.20
2023-03-13T21:27:44.727Z,12.20
2023-03-13T21:30:19.124Z,12.20
2023-03-13T21:32:49.745Z,12.20
2023-03-13T21:35:17.998Z,12.20
2023-03-13T21:37:46.152Z,12.10
2023-03-13T21:40:14.631Z,12.10
2023-03-13T21:42:42.822Z,12.10
2023-03-13T21:45:12.170Z,12.10
2023-03-13T21:47:42.000Z,12.00
2023-03-13T21:50:13.745Z,12.00
2023-03-13T21:52:45.716Z,12.00
2023-03-13T21:55:14.316Z,11.90
2023-03-13T21:57:49.944Z,11.90
2023-03-13T22:00:19.280Z,11.80
2023-03-13T22:02:49.530Z,11.80
2023-03-13T22:05:18.186Z,11.70
2023-03-13T22:07:46.933Z,11.70
2023-03-13T22:10:15.237Z,11.70
2023-03-13T22:12:45.926Z,11.60
2023-03-13T22:15:14.033Z,11.60
2023-03-13T22:17:42.281Z,11.60
2023-03-13T22:20:14.687Z,11.60
2023-03-13T22:22:42.910Z,11.60
2023-03-13T22:25:11.353Z,11.60
2023-03-13T22:27:39.679Z,11.60
2023-03-13T22:30:09.293Z,11.60
2023-03-13T22:32:37.636Z,11.60
2023-03-13T22:35:06.870Z,11.60
2023-03-13T22:37:36.762Z,11.60
2023-03-13T22:40:05.626Z,11.60
2023-03-13T22:42:33.783Z,11.60
2023-03-13T22:45:04.657Z,11.60
2023-03-13T22:47:33.488Z,11.70
2023-03-13T22:50:01.616Z,11.70
2023-03-13T22:52:33.343Z,11.70
2023-03-13T22:55:05.850Z,11.70
2023-03-13T22:57:34.105Z,11.70
2023-03-13T23:00:07.314Z,11.70
2023-03-13T23:02:35.512Z,11.80
2023-03-13T23:05:03.758Z,11.80
2023-03-13T23:07:32.338Z,11.80
2023-03-13T23:10:00.564Z,11.90
2023-03-13T23:12:30.903Z,11.90
2023-03-13T23:15:00.082Z,12.00
2023-03-13T23:17:29.376Z,12.10
2023-03-13T23:19:57.491Z,12.10
2023-03-13T23:22:29.067Z,12.10
2023-03-13T23:24:57.238Z,12.10
2023-03-13T23:27:25.390Z,12.10
2023-03-13T23:29:57.421Z,12.00
2023-03-13T23:32:27.955Z,12.10
2023-03-13T23:34:56.160Z,12.10
2023-03-13T23:37:24.269Z,12.10
2023-03-13T23:39:54.750Z,12.10
2023-03-13T23:42:22.891Z,12.10
2023-03-13T23:44:53.339Z,12.10
2023-03-13T23:47:22.901Z,12.10
2023-03-13T23:49:52.859Z,12.20
2023-03-13T23:52:20.965Z,12.20
2023-03-13T23:54:51.059Z,12.20
2023-03-13T23:57:19.376Z,12.10
2023-03-13T23:59:51.614Z,12.10
